createdAt,value
2022-10-19T00:00:02.854Z,12.88
2022-10-19T00:04:59.590Z,8.68
2022-10-19T00:07:27.001Z,8.88
2022-10-19T00:09:57.088Z,12.23
2022-10-19T00:12:24.417Z,10.23
2022-10-19T00:14:51.716Z,12.27
2022-10-19T00:17:19.008Z,11.10
2022-10-19T00:19:46.217Z,8.45
2022-10-19T00:22:14.155Z,8.75
2022-10-19T00:24:42.514Z,10.55
2022-10-19T00:27:10.080Z,9.70
2022-10-19T00:29:37.457Z,10.07
2022-10-19T00:32:04.965Z,10.68
2022-10-19T00:34:32.364Z,10.18
2022-10-19T00:36:59.693Z,13.65
2022-10-19T00:39:26.928Z,8.02
2022-10-19T00:41:54.206Z,18.40
2022-10-19T00:44:21.600Z,13.32
2022-10-19T00:46:48.908Z,13.02
2022-10-19T00:49:27.651Z,9.48
2022-10-19T00:51:56.609Z,10.43
2022-10-19T00:54:24.551Z,12.02
2022-10-19T00:56:54.315Z,9.38
2022-10-19T01:01:49.766Z,10.52
2022-10-19T01:04:17.197Z,11.98
2022-10-19T01:06:44.584Z,7.43
2022-10-19T01:09:12.021Z,11.70
2022-10-19T01:11:51.753Z,8.25
2022-10-19T01:17:05.097Z,12.60
2022-10-19T01:19:51.180Z,10.98
2022-10-19T01:22:32.496Z,9.23
2022-10-19T01:25:23.339Z,8.50
2022-10-19T01:28:09.473Z,7.72
2022-10-19T01:30:36.846Z,10.48
2022-10-19T01:33:13.011Z,8.50
2022-10-19T01:35:45.222Z,7.28
2022-10-19T01:38:31.221Z,7.70
2022-10-19T01:41:03.496Z,10.18
2022-10-19T01:43:41.001Z,8.98
2022-10-19T01:46:12.605Z,8.77
2022-10-19T01:48:42.024Z,5.30
2022-10-19T01:51:16.569Z,6.32
2022-10-19T01:53:52.361Z,7.35
2022-10-19T01:56:21.195Z,5.97
2022-10-19T01:58:50.167Z,7.50
2022-10-19T02:01:20.763Z,11.93
2022-10-19T02:03:49.788Z,7.72
2022-10-19T02:06:17.418Z,11.30
2022-10-19T02:08:46.956Z,8.65
2022-10-19T02:11:14.339Z,10.55
2022-10-19T02:13:42.273Z,8.60
2022-10-19T02:16:13.243Z,7.90
2022-10-19T02:18:45.922Z,13.10
2022-10-19T02:21:13.172Z,10.00
2022-10-19T02:23:40.520Z,8.30
2022-10-19T02:26:07.922Z,8.55
2022-10-19T02:28:35.427Z,10.00
2022-10-19T02:31:02.932Z,12.45
2022-10-19T02:33:30.584Z,8.50
2022-10-19T02:35:58.538Z,8.90
2022-10-19T02:38:26.067Z,7.28
2022-10-19T02:41:03.933Z,8.57
2022-10-19T02:43:32.998Z,11.95
2022-10-19T02:46:02.638Z,9.90
2022-10-19T02:48:31.353Z,10.15
2022-10-19T02:50:58.856Z,10.70
2022-10-19T02:53:26.304Z,9.27
2022-10-19T02:55:53.722Z,9.35
2022-10-19T02:58:21.082Z,8.43
2022-10-19T03:00:48.348Z,10.05
2022-10-19T03:03:15.722Z,11.35
2022-10-19T03:05:43.166Z,7.40
2022-10-19T03:08:10.530Z,9.70
2022-10-19T03:10:40.086Z,8.65
2022-10-19T03:13:07.441Z,10.05
2022-10-19T03:15:34.730Z,8.25
2022-10-19T03:18:02.088Z,9.55
2022-10-19T03:20:29.623Z,10.95
2022-10-19T03:22:56.933Z,8.07
2022-10-19T03:25:24.204Z,8.48
2022-10-19T03:27:54.001Z,8.95
2022-10-19T03:30:21.580Z,9.73
2022-10-19T03:32:48.903Z,7.93
2022-10-19T03:35:19.366Z,9.35
2022-10-19T03:37:46.720Z,9.43
2022-10-19T03:40:14.079Z,9.18
2022-10-19T03:42:41.431Z,9.27
2022-10-19T03:45:08.902Z,13.48
2022-10-19T03:47:36.543Z,7.65
2022-10-19T03:50:06.866Z,8.55
2022-10-19T03:52:34.262Z,9.52
2022-10-19T03:55:01.752Z,7.88
2022-10-19T03:57:28.967Z,9.55
2022-10-19T03:59:56.183Z,7.43
2022-10-19T04:02:23.525Z,10.07
2022-10-19T04:04:50.803Z,8.55
2022-10-19T04:07:18.092Z,11.93
2022-10-19T04:09:45.778Z,7.07
2022-10-19T04:12:13.101Z,8.18
2022-10-19T04:14:56.395Z,8.15
2022-10-19T04:17:24.539Z,10.38
2022-10-19T04:19:52.531Z,8.68
2022-10-19T04:22:19.807Z,7.05
2022-10-19T04:24:47.138Z,9.00
2022-10-19T04:27:14.487Z,7.75
2022-10-19T04:29:41.732Z,8.45
2022-10-19T04:32:09.115Z,9.90
2022-10-19T04:34:39.234Z,7.75
2022-10-19T04:37:07.389Z,12.82
2022-10-19T04:39:34.656Z,12.00
2022-10-19T04:42:01.914Z,8.10
2022-10-19T04:44:29.165Z,13.73
2022-10-19T04:46:56.428Z,12.82
2022-10-19T04:49:23.713Z,15.32
2022-10-19T04:51:50.928Z,13.77
2022-10-19T04:54:18.314Z,15.52
2022-10-19T04:56:45.535Z,18.02
2022-10-19T04:59:14.319Z,20.20
2022-10-19T05:01:46.443Z,16.55
2022-10-19T05:04:14.741Z,17.20
2022-10-19T05:06:42.109Z,13.07
2022-10-19T05:09:09.436Z,16.15
2022-10-19T05:11:36.702Z,18.95
2022-10-19T05:14:03.985Z,13.82
2022-10-19T05:16:31.235Z,19.80
2022-10-19T05:18:59.650Z,20.10
2022-10-19T05:21:28.933Z,20.98
2022-10-19T05:23:57.139Z,22.70
2022-10-19T05:26:25.389Z,17.67
2022-10-19T05:28:59.520Z,18.98
2022-10-19T05:31:28.283Z,22.17
2022-10-19T05:33:58.832Z,16.53
2022-10-19T05:36:32.387Z,21.98
2022-10-19T05:39:01.617Z,17.60
2022-10-19T05:41:29.388Z,15.75
2022-10-19T05:43:57.983Z,18.92
2022-10-19T05:46:26.072Z,15.45
2022-10-19T05:48:53.801Z,16.83
2022-10-19T05:51:21.965Z,15.57
2022-10-19T05:53:53.595Z,14.13
2022-10-19T05:56:22.376Z,19.45
2022-10-19T05:58:50.100Z,11.27
2022-10-19T06:01:19.143Z,14.00
2022-10-19T06:03:51.969Z,15.43
2022-10-19T06:06:22.166Z,13.52
2022-10-19T06:08:49.708Z,13.18
2022-10-19T06:11:18.828Z,15.88
2022-10-19T06:13:46.977Z,11.88
2022-10-19T06:16:15.300Z,10.27
2022-10-19T06:18:42.969Z,11.88
2022-10-19T06:21:14.256Z,12.27
2022-10-19T06:23:43.866Z,13.23
2022-10-19T06:26:18.024Z,13.45
2022-10-19T06:28:45.800Z,11.60
2022-10-19T06:31:14.683Z,12.68
2022-10-19T06:33:43.195Z,12.63
2022-10-19T06:36:15.949Z,8.93
2022-10-19T06:38:43.346Z,12.10
2022-10-19T06:41:11.450Z,11.68
2022-10-19T06:43:39.045Z,14.20
2022-10-19T06:46:10.778Z,12.00
2022-10-19T06:48:41.424Z,12.23
2022-10-19T06:51:08.944Z,12.85
2022-10-19T06:53:39.407Z,12.45
2022-10-19T06:56:07.105Z,14.57
2022-10-19T06:58:38.233Z,14.32
2022-10-19T07:01:10.336Z,20.85
2022-10-19T07:03:38.179Z,16.35
2022-10-19T07:06:07.033Z,14.57
2022-10-19T07:08:35.864Z,19.35
2022-10-19T07:11:07.569Z,23.63
2022-10-19T07:13:35.244Z,17.08
2022-10-19T07:16:15.798Z,17.77
2022-10-19T07:18:46.993Z,19.02
2022-10-19T07:21:15.675Z,19.77
2022-10-19T07:23:44.414Z,16.48
2022-10-19T07:26:13.605Z,15.60
2022-10-19T07:28:41.508Z,19.93
2022-10-19T07:31:13.409Z,16.58
2022-10-19T07:33:40.881Z,24.85
2022-10-19T07:36:09.351Z,14.63
2022-10-19T07:38:40.229Z,14.57
2022-10-19T07:41:09.032Z,16.60
2022-10-19T07:43:36.920Z,12.73
2022-10-19T07:46:06.421Z,11.52
2022-10-19T07:48:34.381Z,12.70
2022-10-19T07:51:02.618Z,13.45
2022-10-19T07:53:29.966Z,11.13
2022-10-19T07:55:57.628Z,9.90
2022-10-19T07:58:25.048Z,15.63
2022-10-19T08:00:52.303Z,12.32
2022-10-19T08:03:57.509Z,11.05
2022-10-19T08:06:08.503Z,14.48
2022-10-19T08:08:40.887Z,14.90
2022-10-19T08:11:13.147Z,11.73
2022-10-19T08:13:40.727Z,8.20
2022-10-19T08:16:20.705Z,7.65
2022-10-19T08:18:48.462Z,8.20
2022-10-19T08:21:15.905Z,8.55
2022-10-19T08:23:43.432Z,10.43
2022-10-19T08:26:10.943Z,9.07
2022-10-19T08:28:38.448Z,11.75
2022-10-19T08:31:16.121Z,8.00
2022-10-19T08:33:43.617Z,7.65
2022-10-19T08:36:12.356Z,5.07
2022-10-19T08:38:40.191Z,8.30
2022-10-19T08:41:12.413Z,9.48
2022-10-19T08:43:42.039Z,5.57
2022-10-19T08:48:39.361Z,10.15
2022-10-19T08:51:09.319Z,8.00
2022-10-19T08:53:41.712Z,13.27
2022-10-19T08:56:12.185Z,6.40
2022-10-19T08:58:58.555Z,6.72
2022-10-19T09:01:41.993Z,5.78
2022-10-19T09:04:15.568Z,6.55
2022-10-19T09:06:49.721Z,5.50
2022-10-19T09:09:19.096Z,9.38
2022-10-19T09:11:50.942Z,8.88
2022-10-19T09:14:36.995Z,8.32
2022-10-19T09:17:10.122Z,6.32
2022-10-19T09:19:37.495Z,7.57
2022-10-19T09:22:11.090Z,7.53
2022-10-19T09:24:48.419Z,7.10
2022-10-19T09:27:26.910Z,5.35
2022-10-19T09:29:58.215Z,5.05
2022-10-19T09:32:27.953Z,10.70
2022-10-19T09:34:57.742Z,10.02
2022-10-19T09:37:26.758Z,6.70
2022-10-19T09:39:55.789Z,5.47
2022-10-19T09:42:33.417Z,8.07
2022-10-19T09:45:02.511Z,7.22
2022-10-19T09:47:37.973Z,7.20
2022-10-19T09:50:14.851Z,5.93
2022-10-19T09:52:43.153Z,7.35
2022-10-19T09:55:28.126Z,9.55
2022-10-19T09:58:27.007Z,8.38
2022-10-19T10:00:57.856Z,6.70
2022-10-19T10:03:25.341Z,4.43
2022-10-19T10:05:53.274Z,6.90
2022-10-19T10:08:21.803Z,9.82
2022-10-19T10:10:54.670Z,6.18
2022-10-19T10:13:24.883Z,6.72
2022-10-19T10:15:56.477Z,7.78
2022-10-19T10:18:27.229Z,9.75
2022-10-19T10:21:07.343Z,5.30
2022-10-19T10:23:36.815Z,6.28
2022-10-19T10:26:05.436Z,8.77
2022-10-19T10:28:33.152Z,16.90
2022-10-19T10:31:02.389Z,3.22
2022-10-19T10:33:44.252Z,6.18
2022-10-19T10:36:13.119Z,5.18
2022-10-19T10:38:49.968Z,8.38
2022-10-19T10:41:18.720Z,7.18
2022-10-19T10:43:57.461Z,5.87
2022-10-19T10:46:29.200Z,7.65
2022-10-19T10:49:00.735Z,4.70
2022-10-19T10:51:28.302Z,7.82
2022-10-19T10:54:07.755Z,8.02
2022-10-19T10:56:35.415Z,6.57
2022-10-19T10:59:05.721Z,6.70
2022-10-19T11:01:40.844Z,5.07
2022-10-19T11:04:21.089Z,7.00
2022-10-19T11:06:54.974Z,6.43
2022-10-19T11:09:26.947Z,8.75
2022-10-19T11:11:57.669Z,5.28
2022-10-19T11:14:43.763Z,9.82
2022-10-19T11:17:31.553Z,4.72
2022-10-19T11:20:01.716Z,5.00
2022-10-19T11:22:32.433Z,7.82
2022-10-19T11:24:59.876Z,6.38
2022-10-19T11:27:30.033Z,7.65
2022-10-19T11:30:03.540Z,5.97
2022-10-19T11:32:30.914Z,4.93
2022-10-19T11:35:18.593Z,4.53
2022-10-19T11:38:17.579Z,7.70
2022-10-19T11:40:54.168Z,7.15
2022-10-19T11:43:47.178Z,7.22
2022-10-19T11:46:17.664Z,5.30
2022-10-19T11:48:56.038Z,7.25
2022-10-19T11:51:36.683Z,7.88
2022-10-19T11:54:09.977Z,5.75
2022-10-19T11:57:01.779Z,6.78
2022-10-19T11:59:33.061Z,5.53
2022-10-19T12:02:08.103Z,7.13
2022-10-19T12:04:54.106Z,9.13
2022-10-19T12:07:33.545Z,7.13
2022-10-19T12:10:09.979Z,5.15
2022-10-19T12:12:38.943Z,6.43
2022-10-19T12:15:18.055Z,6.90
2022-10-19T12:17:47.794Z,7.82
2022-10-19T12:20:19.874Z,6.97
2022-10-19T12:22:48.518Z,6.95
2022-10-19T12:25:16.387Z,7.90
2022-10-19T12:27:46.690Z,5.90
2022-10-19T12:30:14.021Z,8.50
2022-10-19T12:32:53.460Z,8.05
2022-10-19T12:35:24.518Z,13.43
2022-10-19T12:38:00.911Z,11.77
2022-10-19T12:40:37.083Z,8.38
2022-10-19T12:43:09.725Z,5.93
2022-10-19T12:45:46.479Z,6.45
2022-10-19T12:48:18.981Z,8.25
2022-10-19T12:50:49.287Z,4.93
2022-10-19T12:56:01.839Z,6.53
2022-10-19T12:58:30.168Z,5.70
2022-10-19T13:01:01.814Z,6.78
2022-10-19T13:03:34.969Z,5.53
2022-10-19T13:06:04.225Z,6.82
2022-10-19T13:11:17.474Z,5.03
2022-10-19T13:13:51.262Z,4.57
2022-10-19T13:16:30.808Z,3.47
2022-10-19T13:19:01.284Z,7.40
2022-10-19T13:21:47.408Z,5.05
2022-10-19T13:24:27.151Z,5.05
2022-10-19T13:27:00.549Z,8.85
2022-10-19T13:32:20.200Z,10.32
2022-10-19T13:34:48.117Z,4.53
2022-10-19T13:37:17.443Z,7.18
2022-10-19T13:42:28.409Z,4.47
2022-10-19T13:44:55.984Z,3.80
2022-10-19T13:50:12.365Z,9.95
2022-10-19T13:53:00.636Z,9.25
2022-10-19T13:55:47.485Z,7.32
2022-10-19T13:58:17.977Z,6.57
2022-10-19T14:00:57.781Z,6.57
2022-10-19T14:03:26.524Z,7.88
2022-10-19T14:05:53.933Z,7.55
2022-10-19T14:08:24.342Z,3.85
2022-10-19T14:11:01.061Z,5.70
2022-10-19T14:13:29.343Z,5.93
2022-10-19T14:15:57.663Z,8.85
2022-10-19T14:18:35.655Z,6.47
2022-10-19T14:21:03.051Z,7.55
2022-10-19T14:23:32.032Z,7.32
2022-10-19T14:25:59.576Z,7.35
2022-10-19T14:28:27.633Z,8.75
2022-10-19T14:30:59.854Z,6.65
2022-10-19T14:33:28.171Z,5.63
2022-10-19T14:35:56.032Z,7.22
2022-10-19T14:38:32.590Z,7.07
2022-10-19T14:40:59.989Z,5.15
2022-10-19T14:43:31.650Z,4.22
2022-10-19T14:46:08.210Z,6.80
2022-10-19T14:48:36.234Z,8.63
2022-10-19T14:51:05.292Z,4.07
2022-10-19T14:53:48.045Z,8.68
2022-10-19T14:56:17.261Z,8.38
2022-10-19T14:58:53.881Z,6.05
2022-10-19T15:01:21.937Z,6.75
2022-10-19T15:03:50.275Z,8.30
2022-10-19T15:06:19.931Z,5.35
2022-10-19T15:08:50.135Z,5.82
2022-10-19T15:11:31.753Z,5.82
2022-10-19T15:14:07.554Z,4.63
2022-10-19T15:16:39.195Z,9.75
2022-10-19T15:19:07.376Z,7.55
2022-10-19T15:21:34.851Z,7.43
2022-10-19T15:24:09.931Z,10.05
2022-10-19T15:26:38.163Z,7.63
2022-10-19T15:29:10.136Z,6.03
2022-10-19T15:31:39.922Z,6.15
2022-10-19T15:34:07.888Z,6.10
2022-10-19T15:36:35.194Z,6.47
2022-10-19T15:39:25.215Z,3.75
2022-10-19T15:41:56.615Z,10.85
2022-10-19T15:44:40.982Z,6.70
2022-10-19T15:47:20.551Z,13.30
2022-10-19T15:49:48.092Z,9.23
2022-10-19T15:52:19.330Z,6.75
2022-10-19T15:54:50.567Z,8.02
2022-10-19T15:57:32.370Z,7.30
2022-10-19T16:00:02.506Z,6.47
2022-10-19T16:02:31.503Z,8.15
2022-10-19T16:04:58.973Z,8.07
2022-10-19T16:07:27.787Z,8.57
2022-10-19T16:09:55.619Z,4.53
2022-10-19T16:12:23.608Z,12.38
2022-10-19T16:14:51.059Z,5.18
2022-10-19T16:17:18.629Z,6.38
2022-10-19T16:19:46.719Z,11.77
2022-10-19T16:22:14.446Z,10.35
2022-10-19T16:24:42.092Z,6.05
2022-10-19T16:27:14.434Z,6.60
2022-10-19T16:29:47.148Z,4.75
2022-10-19T16:32:15.802Z,5.78
2022-10-19T16:34:45.988Z,6.20
2022-10-19T16:37:14.019Z,8.80
2022-10-19T16:39:44.630Z,7.63
2022-10-19T16:42:12.036Z,6.95
2022-10-19T16:44:39.493Z,7.22
2022-10-19T16:47:06.975Z,6.18
2022-10-19T16:49:34.401Z,4.75
2022-10-19T16:52:01.811Z,7.30
2022-10-19T16:54:30.162Z,5.32
2022-10-19T16:57:00.716Z,6.68
2022-10-19T16:59:28.080Z,9.35
2022-10-19T17:01:55.549Z,9.00
2022-10-19T17:04:23.191Z,7.50
2022-10-19T17:06:50.548Z,8.65
2022-10-19T17:12:05.405Z,11.10
2022-10-19T17:14:35.769Z,5.68
2022-10-19T17:17:03.379Z,8.77
2022-10-19T17:19:30.842Z,8.23
2022-10-19T17:22:13.511Z,7.18
2022-10-19T17:24:41.260Z,8.10
2022-10-19T17:27:08.678Z,8.52
2022-10-19T17:29:36.582Z,8.77
2022-10-19T17:32:08.085Z,7.85
2022-10-19T17:34:35.595Z,6.60
2022-10-19T17:37:03.166Z,8.80
2022-10-19T17:39:30.951Z,7.90
2022-10-19T17:42:04.436Z,9.27
2022-10-19T17:44:32.415Z,10.82
2022-10-19T17:47:05.215Z,7.28
2022-10-19T17:49:32.624Z,11.02
2022-10-19T17:52:00.177Z,8.63
2022-10-19T17:54:27.893Z,9.55
2022-10-19T17:56:55.357Z,8.07
2022-10-19T17:59:30.505Z,9.85
2022-10-19T18:02:03.458Z,7.43
2022-10-19T18:04:31.013Z,8.75
2022-10-19T18:06:58.524Z,7.55
2022-10-19T18:09:25.933Z,10.63
2022-10-19T18:11:53.337Z,8.02
2022-10-19T18:14:20.854Z,10.75
2022-10-19T18:16:51.444Z,9.05
2022-10-19T18:19:18.978Z,11.23
2022-10-19T18:21:47.538Z,12.20
2022-10-19T18:24:20.401Z,10.30
2022-10-19T18:26:49.114Z,10.18
2022-10-19T18:29:17.911Z,13.03
2022-10-19T18:31:49.192Z,11.60
2022-10-19T18:34:16.861Z,11.10
2022-10-19T18:36:44.543Z,15.90
2022-10-19T18:39:18.255Z,19.95
2022-10-19T18:41:45.713Z,11.98
2022-10-19T18:44:18.353Z,11.05
2022-10-19T18:46:47.393Z,14.93
2022-10-19T18:49:14.805Z,12.82
2022-10-19T18:51:45.333Z,11.65
2022-10-19T18:54:12.830Z,12.63
2022-10-19T18:56:40.221Z,12.10
2022-10-19T18:59:07.707Z,11.93
2022-10-19T19:01:35.140Z,11.27
2022-10-19T19:04:07.664Z,13.52
2022-10-19T19:06:36.329Z,12.10
2022-10-19T19:09:05.530Z,13.98
2022-10-19T19:11:36.785Z,11.98
2022-10-19T19:14:14.831Z,11.48
2022-10-19T19:16:43.372Z,13.60
2022-10-19T19:19:12.385Z,11.77
2022-10-19T19:21:45.113Z,13.93
2022-10-19T19:24:14.338Z,10.15
2022-10-19T19:26:42.929Z,14.77
2022-10-19T19:29:10.347Z,12.77
2022-10-19T19:31:39.333Z,13.55
2022-10-19T19:34:09.409Z,18.57
2022-10-19T19:36:37.881Z,12.73
2022-10-19T19:39:06.195Z,16.30
2022-10-19T19:41:36.916Z,18.13
2022-10-19T19:44:04.395Z,20.30
2022-10-19T19:46:32.431Z,12.45
2022-10-19T19:49:03.835Z,12.40
2022-10-19T19:51:32.249Z,11.82
2022-10-19T19:54:00.202Z,11.82
2022-10-19T19:56:28.934Z,12.85
2022-10-19T19:58:57.142Z,10.25
2022-10-19T20:01:24.716Z,15.07
2022-10-19T20:03:54.447Z,12.00
2022-10-19T20:08:52.619Z,14.68
2022-10-19T20:11:20.040Z,13.82
2022-10-19T20:13:47.436Z,11.40
2022-10-19T20:16:20.947Z,12.95
2022-10-19T20:18:51.374Z,10.15
2022-10-19T20:21:23.697Z,10.55
2022-10-19T20:23:51.142Z,11.40
2022-10-19T20:26:22.040Z,10.43
2022-10-19T20:28:52.709Z,10.68
2022-10-19T20:31:20.584Z,10.70
2022-10-19T20:33:48.274Z,13.02
2022-10-19T20:36:20.924Z,9.15
2022-10-19T20:38:49.488Z,9.77
2022-10-19T20:41:17.689Z,8.70
2022-10-19T20:43:45.006Z,10.05
2022-10-19T20:46:14.099Z,11.80
2022-10-19T20:48:41.808Z,9.88
2022-10-19T20:51:13.837Z,9.20
2022-10-19T20:53:41.630Z,9.32
2022-10-19T20:56:10.288Z,13.00
2022-10-19T20:58:43.482Z,11.27
2022-10-19T21:01:18.241Z,10.85
2022-10-19T21:03:49.798Z,8.90
2022-10-19T21:06:17.308Z,7.28
2022-10-19T21:08:44.963Z,10.68
2022-10-19T21:11:22.784Z,7.78
2022-10-19T21:13:53.945Z,9.20
2022-10-19T21:16:21.784Z,9.90
2022-10-19T21:18:49.810Z,10.30
2022-10-19T21:21:22.021Z,10.90
2022-10-19T21:23:53.509Z,9.65
2022-10-19T21:26:20.898Z,9.50
2022-10-19T21:28:48.915Z,11.00
2022-10-19T21:31:16.885Z,9.07
2022-10-19T21:33:45.027Z,9.68
2022-10-19T21:36:13.056Z,8.85
2022-10-19T21:38:40.815Z,8.60
2022-10-19T21:41:09.467Z,10.93
2022-10-19T21:43:37.059Z,13.63
2022-10-19T21:46:05.512Z,16.73
2022-10-19T21:48:34.067Z,12.27
2022-10-19T21:51:10.805Z,10.40
2022-10-19T21:53:38.158Z,15.30
2022-10-19T21:56:05.628Z,11.18
2022-10-19T21:58:35.560Z,12.32
2022-10-19T22:01:09.314Z,10.80
2022-10-19T22:03:36.822Z,9.55
2022-10-19T22:06:04.343Z,9.75
2022-10-19T22:08:31.815Z,10.73
2022-10-19T22:10:59.336Z,8.57
2022-10-19T22:13:26.692Z,10.00
2022-10-19T22:16:03.650Z,12.30
2022-10-19T22:18:31.152Z,11.68
2022-10-19T22:20:58.537Z,11.32
2022-10-19T22:23:26.031Z,8.30
2022-10-19T22:25:54.950Z,10.38
2022-10-19T22:28:25.013Z,10.88
2022-10-19T22:30:56.050Z,10.07
2022-10-19T22:33:23.824Z,9.63
2022-10-19T22:36:01.227Z,11.25
2022-10-19T22:38:31.529Z,10.13
2022-10-19T22:41:36.644Z,12.57
2022-10-19T22:44:22.525Z,14.48
2022-10-19T22:46:50.034Z,12.50
2022-10-19T22:49:17.375Z,12.77
2022-10-19T22:51:46.245Z,12.48
2022-10-19T22:54:13.908Z,10.98
2022-10-19T22:56:41.318Z,15.38
2022-10-19T22:59:09.179Z,12.63
2022-10-19T23:01:36.928Z,13.75
2022-10-19T23:04:04.579Z,15.00
2022-10-19T23:06:31.942Z,11.43
2022-10-19T23:08:59.415Z,11.68
2022-10-19T23:11:26.749Z,14.52
2022-10-19T23:13:54.087Z,13.35
2022-10-19T23:16:21.402Z,11.07
2022-10-19T23:18:48.719Z,12.90
2022-10-19T23:21:16.387Z,12.13
2022-10-19T23:23:43.791Z,11.02
2022-10-19T23:26:17.862Z,19.35
2022-10-19T23:28:46.410Z,9.55
2022-10-19T23:31:18.435Z,16.02
2022-10-19T23:33:45.862Z,10.35
2022-10-19T23:36:23.271Z,15.13
2022-10-19T23:38:51.848Z,10.10
2022-10-19T23:41:19.879Z,11.88
2022-10-19T23:43:47.408Z,10.10
2022-10-19T23:46:14.907Z,10.23
2022-10-19T23:48:42.354Z,13.65
2022-10-19T23:51:14.214Z,13.48
2022-10-19T23:53:42.732Z,13.32
2022-10-19T23:56:21.325Z,13.52
2022-10-19T23:58:49.106Z,11.55
